Terminal Aerodrome Forecast
Issued by NWS

Home | Current Version | Previous Version | Text Only | Print | Product List | Glossary Off
Versions: 1 2 3 4 5 6 7 8 9 10 11 12 13 14 15

191
FTUS43 KTOP 242320
TAFMHK
TAF
KMHK 242320Z 2500/2524 20014G21KT P6SM BKN250
     FM250200 17009KT P6SM BKN200
     FM250700 15009KT P6SM BKN150 WS020/19043KT
     FM251300 16012KT P6SM BKN035
     FM251800 20008KT P6SM SCT015 BKN035=

USA.gov is the U.S. government's official web portal to all federal, state and local government web resources and services.